createdAt,value
2022-09-04T00:00:24.009Z,68.20
2022-09-04T00:03:04.414Z,68.17
2022-09-04T00:05:35.547Z,71.10
2022-09-04T00:08:14.503Z,67.90
2022-09-04T00:10:48.865Z,69.67
2022-09-04T00:13:22.387Z,68.27
2022-09-04T00:15:54.440Z,68.47
2022-09-04T00:18:26.748Z,67.77
2022-09-04T00:20:59.100Z,68.27
2022-09-04T00:23:31.229Z,70.60
2022-09-04T00:26:04.883Z,67.67
2022-09-04T00:28:36.322Z,68.40
2022-09-04T00:31:14.124Z,69.43
2022-09-04T00:33:48.061Z,70.17
2022-09-04T00:36:17.287Z,73.33
2022-09-04T00:38:48.856Z,69.50
2022-09-04T00:41:31.797Z,72.30
2022-09-04T00:44:13.411Z,69.97
2022-09-04T00:47:02.693Z,69.70
2022-09-04T00:49:45.349Z,69.30
2022-09-04T00:52:31.430Z,68.60
2022-09-04T00:55:18.837Z,69.57
2022-09-04T00:57:59.896Z,68.70
2022-09-04T01:00:30.264Z,72.07
2022-09-04T01:03:20.521Z,70.07
2022-09-04T01:06:02.320Z,69.20
2022-09-04T01:08:40.856Z,70.30
2022-09-04T01:11:15.781Z,69.30
2022-09-04T01:13:46.846Z,68.37
2022-09-04T01:16:21.383Z,68.50
2022-09-04T01:18:57.111Z,69.47
2022-09-04T01:21:43.933Z,68.80
2022-09-04T01:24:33.706Z,68.17
2022-09-04T01:27:07.421Z,69.10
2022-09-04T01:29:42.991Z,68.40
2022-09-04T01:32:16.361Z,67.57
2022-09-04T01:34:51.909Z,68.87
2022-09-04T01:37:30.347Z,67.60
2022-09-04T01:40:18.431Z,68.50
2022-09-04T01:42:50.712Z,67.60
2022-09-04T01:45:23.771Z,66.50
2022-09-04T01:47:53.102Z,67.77
2022-09-04T01:50:24.770Z,67.20
2022-09-04T01:53:00.077Z,69.07
2022-09-04T01:55:33.032Z,67.00
2022-09-04T01:58:12.186Z,67.07
2022-09-04T02:00:57.653Z,67.80
2022-09-04T02:03:28.339Z,67.70
2022-09-04T02:06:03.919Z,66.47
2022-09-04T02:08:45.451Z,67.73
2022-09-04T02:11:16.594Z,68.17
2022-09-04T02:14:02.306Z,66.40
2022-09-04T02:16:36.565Z,66.37
2022-09-04T02:19:07.980Z,67.37
2022-09-04T02:21:38.323Z,67.90
2022-09-04T02:24:12.462Z,68.03
2022-09-04T02:26:44.794Z,66.67
2022-09-04T02:29:18.901Z,67.80
2022-09-04T02:31:52.037Z,67.90
2022-09-04T02:34:25.798Z,68.37
2022-09-04T02:37:00.214Z,66.70
2022-09-04T02:39:37.041Z,66.47
2022-09-04T02:42:12.001Z,68.27
2022-09-04T02:44:47.792Z,66.77
2022-09-04T02:47:24.868Z,67.37
2022-09-04T02:49:59.960Z,70.73
2022-09-04T02:52:57.186Z,67.40
2022-09-04T02:55:35.654Z,67.50
2022-09-04T02:58:14.744Z,68.47
2022-09-04T03:00:54.323Z,70.70
2022-09-04T03:03:27.958Z,67.97
2022-09-04T03:06:01.693Z,70.97
2022-09-04T03:08:36.257Z,67.27
2022-09-04T03:11:08.836Z,67.77
2022-09-04T03:13:41.491Z,67.90
2022-09-04T03:16:20.466Z,69.00
2022-09-04T03:19:05.222Z,67.90
2022-09-04T03:21:41.935Z,66.50
2022-09-04T03:24:13.371Z,66.10
2022-09-04T03:26:43.617Z,66.70
2022-09-04T03:29:22.086Z,68.30
2022-09-04T03:31:56.264Z,68.60
2022-09-04T03:34:34.620Z,68.37
2022-09-04T03:37:13.819Z,68.37
2022-09-04T03:39:47.989Z,68.90
2022-09-04T03:42:20.980Z,69.17
2022-09-04T03:44:59.242Z,67.57
2022-09-04T03:47:35.546Z,67.90
2022-09-04T03:50:12.181Z,67.27
2022-09-04T03:52:48.615Z,67.47
2022-09-04T03:55:53.447Z,66.97
2022-09-04T03:58:24.646Z,67.80
2022-09-04T04:01:01.156Z,68.17
2022-09-04T04:03:44.073Z,73.27
2022-09-04T04:06:19.847Z,67.97
2022-09-04T04:09:00.568Z,67.07
2022-09-04T04:11:53.403Z,68.60
2022-09-04T04:14:38.882Z,69.47
2022-09-04T04:17:24.990Z,67.70
2022-09-04T04:20:05.888Z,69.47
2022-09-04T04:22:46.050Z,70.07
2022-09-04T04:25:25.190Z,71.90
2022-09-04T04:28:09.243Z,69.10
2022-09-04T04:30:40.904Z,71.57
2022-09-04T04:33:20.471Z,72.50
2022-09-04T04:35:55.849Z,71.60
2022-09-04T04:38:34.629Z,73.50
2022-09-04T04:41:21.494Z,72.13
2022-09-04T04:44:00.613Z,70.73
2022-09-04T04:46:36.967Z,71.00
2022-09-04T04:49:18.359Z,72.17
2022-09-04T04:52:00.080Z,72.73
2022-09-04T04:54:43.494Z,71.63
2022-09-04T04:57:19.522Z,72.67
2022-09-04T04:59:55.728Z,72.77
2022-09-04T05:02:27.945Z,72.93
2022-09-04T05:05:02.366Z,72.13
2022-09-04T05:07:37.780Z,72.70
2022-09-04T05:10:14.906Z,71.37
2022-09-04T05:12:56.142Z,71.50
2022-09-04T05:15:29.809Z,71.30
2022-09-04T05:18:00.615Z,72.20
2022-09-04T05:20:37.557Z,70.97
2022-09-04T05:23:28.590Z,71.70
2022-09-04T05:26:03.035Z,72.10
2022-09-04T05:28:36.947Z,71.43
2022-09-04T05:31:16.298Z,74.27
2022-09-04T05:33:52.342Z,73.67
2022-09-04T05:36:25.452Z,74.37
2022-09-04T05:38:59.780Z,72.80
2022-09-04T05:41:38.075Z,74.37
2022-09-04T05:44:32.145Z,72.37
2022-09-04T05:47:08.702Z,72.40
2022-09-04T05:50:06.626Z,73.63
2022-09-04T05:52:48.933Z,72.57
2022-09-04T05:55:36.538Z,72.00
2022-09-04T05:58:17.891Z,73.77
2022-09-04T06:00:53.221Z,71.97
2022-09-04T06:03:37.312Z,74.93
2022-09-04T06:06:09.928Z,72.47
2022-09-04T06:09:06.707Z,72.57
2022-09-04T06:11:51.754Z,71.33
2022-09-04T06:14:30.301Z,73.37
2022-09-04T06:17:08.898Z,71.50
2022-09-04T06:20:12.354Z,70.90
2022-09-04T06:22:55.746Z,71.00
2022-09-04T06:25:46.829Z,72.20
2022-09-04T06:28:30.235Z,71.50
2022-09-04T06:31:05.359Z,71.70
2022-09-04T06:33:53.987Z,71.47
2022-09-04T06:36:46.570Z,74.00
2022-09-04T06:39:41.832Z,71.27
2022-09-04T06:42:25.356Z,71.07
2022-09-04T06:45:05.362Z,70.27
2022-09-04T06:47:42.777Z,69.77
2022-09-04T06:50:19.742Z,70.97
2022-09-04T06:52:56.003Z,70.07
2022-09-04T06:55:30.759Z,71.03
2022-09-04T06:58:14.599Z,69.70
2022-09-04T07:00:47.495Z,70.50
2022-09-04T07:03:26.708Z,74.47
2022-09-04T07:06:00.766Z,71.10
2022-09-04T07:08:39.431Z,70.83
2022-09-04T07:11:20.405Z,70.17
2022-09-04T07:14:09.994Z,70.37
2022-09-04T07:16:43.206Z,70.83
2022-09-04T07:19:22.175Z,74.13
2022-09-04T07:22:00.142Z,70.57
2022-09-04T07:24:47.977Z,72.47
2022-09-04T07:27:21.581Z,77.03
2022-09-04T07:29:53.840Z,69.80
2022-09-04T07:32:26.584Z,72.07
2022-09-04T07:35:04.400Z,70.07
2022-09-04T07:37:39.674Z,68.90
2022-09-04T07:40:12.881Z,73.07
2022-09-04T07:42:45.803Z,70.40
2022-09-04T07:45:23.078Z,69.07
2022-09-04T07:47:58.702Z,69.23
2022-09-04T07:50:32.612Z,71.37
2022-09-04T07:53:14.749Z,69.17
2022-09-04T07:55:46.996Z,69.63
2022-09-04T07:58:32.891Z,71.13
2022-09-04T08:01:15.464Z,69.60
2022-09-04T08:03:58.371Z,68.70
2022-09-04T08:06:32.254Z,69.20
2022-09-04T08:09:13.333Z,70.30
2022-09-04T08:12:04.315Z,69.37
2022-09-04T08:14:51.209Z,68.47
2022-09-04T08:17:43.370Z,68.27
2022-09-04T08:20:35.907Z,68.40
2022-09-04T08:23:13.773Z,69.03
2022-09-04T08:25:51.581Z,69.60
2022-09-04T08:28:34.978Z,68.37
2022-09-04T08:31:09.211Z,68.97
2022-09-04T08:33:56.945Z,68.80
2022-09-04T08:36:33.347Z,69.47
2022-09-04T08:39:07.784Z,69.03
2022-09-04T08:42:18.164Z,69.80
2022-09-04T08:45:33.038Z,68.83
2022-09-04T08:48:35.654Z,68.10
2022-09-04T08:51:21.935Z,69.40
2022-09-04T08:54:15.987Z,68.67
2022-09-04T08:56:47.268Z,70.27
2022-09-04T08:59:39.029Z,68.27
2022-09-04T09:02:54.841Z,69.07
2022-09-04T09:06:15.545Z,70.30
2022-09-04T09:09:35.282Z,69.97
2022-09-04T09:12:47.148Z,69.40
2022-09-04T09:15:43.353Z,68.87
2022-09-04T09:18:33.081Z,68.63
2022-09-04T09:21:08.447Z,68.63
2022-09-04T09:23:41.637Z,68.73
2022-09-04T09:26:26.629Z,73.30
2022-09-04T09:29:24.295Z,69.30
2022-09-04T09:32:23.248Z,70.10
2022-09-04T09:35:29.307Z,70.67
2022-09-04T09:38:27.981Z,69.07
2022-09-04T09:41:20.090Z,72.20
2022-09-04T09:44:05.169Z,70.80
2022-09-04T09:47:09.643Z,71.17
2022-09-04T09:50:30.281Z,68.70
2022-09-04T09:53:36.010Z,69.77
2022-09-04T09:56:25.337Z,72.20
2022-09-04T09:59:27.470Z,70.10
2022-09-04T10:02:21.058Z,69.50
2022-09-04T10:05:15.503Z,70.43
2022-09-04T10:08:13.635Z,68.97
2022-09-04T10:10:59.832Z,69.80
2022-09-04T10:14:12.531Z,69.07
2022-09-04T10:17:06.186Z,74.80
2022-09-04T10:19:53.761Z,71.47
2022-09-04T10:23:00.945Z,71.80
2022-09-04T10:29:18.553Z,69.60
2022-09-04T10:32:07.782Z,70.27
2022-09-04T10:35:26.227Z,70.70
2022-09-04T10:38:12.076Z,71.67
2022-09-04T10:40:51.453Z,70.07
2022-09-04T10:43:46.768Z,70.47
2022-09-04T10:46:23.059Z,69.10
2022-09-04T10:49:28.158Z,71.00
2022-09-04T10:52:31.619Z,70.97
2022-09-04T10:55:26.671Z,70.07
2022-09-04T10:58:20.249Z,70.17
2022-09-04T11:01:03.499Z,70.30
2022-09-04T11:03:44.852Z,70.07
2022-09-04T11:06:43.764Z,69.90
2022-09-04T11:09:28.358Z,73.47
2022-09-04T11:12:19.045Z,70.10
2022-09-04T11:15:12.620Z,72.20
2022-09-04T11:18:13.199Z,71.37
2022-09-04T11:21:29.250Z,69.27
2022-09-04T11:24:35.282Z,71.73
2022-09-04T11:27:30.998Z,70.47
2022-09-04T11:30:06.462Z,71.60
2022-09-04T11:32:51.948Z,70.37
2022-09-04T11:36:00.823Z,70.70
2022-09-04T11:38:46.100Z,71.00
2022-09-04T11:41:36.334Z,69.87
2022-09-04T11:44:51.727Z,70.10
2022-09-04T11:47:52.412Z,72.77
2022-09-04T11:50:56.398Z,68.30
2022-09-04T11:53:44.758Z,70.30
2022-09-04T11:56:33.257Z,69.53
2022-09-04T11:59:13.860Z,69.77
2022-09-04T12:01:54.229Z,70.60
2022-09-04T12:04:40.541Z,70.50
2022-09-04T12:07:37.920Z,69.47
2022-09-04T12:10:23.841Z,69.80
2022-09-04T12:13:23.689Z,69.57
2022-09-04T12:16:17.139Z,70.07
2022-09-04T12:19:04.146Z,70.23
2022-09-04T12:21:58.177Z,70.10
2022-09-04T12:24:57.493Z,69.70
2022-09-04T12:27:53.202Z,71.20
2022-09-04T12:30:23.690Z,70.37
2022-09-04T12:33:16.409Z,70.60
2022-09-04T12:36:05.263Z,69.20
2022-09-04T12:38:56.257Z,69.47
2022-09-04T12:41:29.931Z,69.00
2022-09-04T12:44:08.694Z,69.07
2022-09-04T12:46:50.932Z,69.50
2022-09-04T12:49:42.765Z,70.07
2022-09-04T12:52:19.129Z,70.23
2022-09-04T12:54:52.997Z,69.87
2022-09-04T12:57:31.455Z,69.77
2022-09-04T13:00:08.225Z,69.60
2022-09-04T13:02:46.997Z,70.90
2022-09-04T13:05:41.758Z,70.63
2022-09-04T13:08:26.596Z,69.53
2022-09-04T13:11:02.136Z,70.00
2022-09-04T13:13:42.237Z,70.13
2022-09-04T13:16:13.898Z,69.30
2022-09-04T13:18:51.443Z,70.73
2022-09-04T13:21:28.760Z,69.50
2022-09-04T13:24:09.069Z,69.87
2022-09-04T13:26:54.634Z,69.60
2022-09-04T13:29:28.573Z,70.20
2022-09-04T13:32:22.507Z,69.20
2022-09-04T13:35:02.104Z,69.50
2022-09-04T13:37:36.164Z,69.83
2022-09-04T13:40:27.764Z,68.80
2022-09-04T13:43:32.634Z,68.47
2022-09-04T13:46:04.593Z,69.40
2022-09-04T13:48:38.031Z,69.87
2022-09-04T13:51:13.479Z,72.80
2022-09-04T13:53:58.061Z,68.53
2022-09-04T13:56:31.027Z,68.80
2022-09-04T13:59:08.663Z,69.17
2022-09-04T14:01:45.913Z,68.00
2022-09-04T14:04:17.071Z,69.70
2022-09-04T14:06:45.906Z,68.60
2022-09-04T14:09:14.433Z,69.40
2022-09-04T14:12:02.327Z,68.93
2022-09-04T14:15:01.133Z,68.43
2022-09-04T14:17:34.786Z,68.70
2022-09-04T14:20:11.539Z,68.90
2022-09-04T14:22:46.771Z,69.43
2022-09-04T14:25:18.887Z,69.77
2022-09-04T14:27:55.012Z,69.47
2022-09-04T14:30:25.832Z,69.43
2022-09-04T14:33:18.733Z,69.67
2022-09-04T14:35:54.161Z,69.50
2022-09-04T14:38:41.221Z,71.13
2022-09-04T14:41:20.958Z,69.00
2022-09-04T14:44:03.936Z,68.77
2022-09-04T14:46:38.364Z,68.30
2022-09-04T14:49:08.748Z,69.20
2022-09-04T14:51:38.868Z,69.60
2022-09-04T14:54:08.496Z,70.97
2022-09-04T14:56:42.903Z,70.60
2022-09-04T14:59:17.524Z,68.87
2022-09-04T15:02:07.730Z,73.80
2022-09-04T15:04:41.782Z,69.00
2022-09-04T15:07:25.140Z,69.00
2022-09-04T15:09:54.810Z,70.23
2022-09-04T15:12:26.612Z,68.07
2022-09-04T15:15:00.292Z,68.37
2022-09-04T15:17:31.094Z,69.10
2022-09-04T15:20:03.267Z,68.00
2022-09-04T15:22:37.644Z,69.00
2022-09-04T15:25:08.993Z,68.60
2022-09-04T15:27:44.785Z,67.77
2022-09-04T15:30:19.950Z,68.73
2022-09-04T15:32:50.145Z,68.07
2022-09-04T15:35:23.618Z,68.07
2022-09-04T15:38:20.659Z,68.07
2022-09-04T15:41:14.912Z,67.80
2022-09-04T15:43:43.270Z,70.53
2022-09-04T15:46:21.230Z,70.37
2022-09-04T15:48:55.274Z,68.10
2022-09-04T15:51:28.705Z,68.27
2022-09-04T15:54:28.840Z,68.83
2022-09-04T15:57:01.229Z,69.00
2022-09-04T15:59:54.906Z,68.70
2022-09-04T16:02:54.666Z,67.87
2022-09-04T16:05:28.226Z,69.97
2022-09-04T16:08:03.819Z,69.43
2022-09-04T16:10:44.166Z,68.17
2022-09-04T16:13:44.537Z,69.07
2022-09-04T16:16:17.949Z,68.00
2022-09-04T16:19:02.466Z,68.40
2022-09-04T16:21:41.292Z,68.60
2022-09-04T16:24:14.153Z,68.17
2022-09-04T16:26:42.384Z,67.43
2022-09-04T16:29:16.428Z,68.83
2022-09-04T16:31:52.973Z,73.75
2022-09-04T16:34:22.790Z,69.43
2022-09-04T16:36:56.602Z,69.00
2022-09-04T16:39:29.944Z,68.80
2022-09-04T16:42:00.994Z,69.47
2022-09-04T16:44:33.748Z,67.60
2022-09-04T16:47:10.510Z,69.00
2022-09-04T16:49:44.216Z,68.37
2022-09-04T16:52:31.883Z,68.33
2022-09-04T16:55:08.600Z,70.50
2022-09-04T16:57:41.305Z,67.87
2022-09-04T17:00:10.850Z,68.07
2022-09-04T17:02:45.250Z,69.17
2022-09-04T17:05:20.710Z,68.03
2022-09-04T17:07:59.376Z,68.33
2022-09-04T17:10:42.414Z,69.10
2022-09-04T17:13:13.123Z,68.07
2022-09-04T17:15:53.501Z,68.30
2022-09-04T17:18:23.949Z,67.77
2022-09-04T17:22:49.988Z,68.10
2022-09-04T17:28:58.371Z,68.00
2022-09-04T17:29:09.208Z,67.60
2022-09-04T17:29:41.672Z,67.40
2022-09-04T17:34:04.343Z,67.07
2022-09-04T17:40:37.770Z,70.30
2022-09-04T17:40:51.160Z,68.50
2022-09-04T17:41:37.915Z,68.40
2022-09-04T17:44:10.394Z,68.37
2022-09-04T17:46:39.825Z,68.67
2022-09-04T17:49:15.248Z,69.27
2022-09-04T17:51:48.779Z,69.23
2022-09-04T17:54:18.029Z,70.70
2022-09-04T17:56:51.165Z,67.17
2022-09-04T17:59:23.058Z,69.27
2022-09-04T18:02:01.293Z,70.07
2022-09-04T18:04:37.477Z,67.67
2022-09-04T18:07:53.220Z,68.87
2022-09-04T18:10:08.421Z,67.30
2022-09-04T18:12:43.235Z,67.90
2022-09-04T18:15:34.440Z,68.07
2022-09-04T18:18:12.589Z,68.00
2022-09-04T18:20:45.078Z,67.70
2022-09-04T18:23:51.920Z,68.73
2022-09-04T18:26:33.971Z,69.70
2022-09-04T18:31:46.437Z,71.27
2022-09-04T18:37:07.158Z,70.27
2022-09-04T18:37:26.562Z,70.27
2022-09-04T18:38:12.251Z,70.07
2022-09-04T18:43:05.355Z,69.93
2022-09-04T18:50:22.932Z,71.13
2022-09-04T18:50:48.706Z,69.93
2022-09-04T18:50:48.708Z,68.00
2022-09-04T18:52:59.870Z,68.67
2022-09-04T18:55:31.627Z,68.90
2022-09-04T18:58:25.784Z,71.07
2022-09-04T19:00:57.066Z,68.17
2022-09-04T19:03:28.770Z,68.77
2022-09-04T19:06:00.879Z,68.60
2022-09-04T19:08:33.035Z,69.50
2022-09-04T19:11:09.382Z,68.37
2022-09-04T19:13:52.896Z,68.30
2022-09-04T19:16:26.344Z,68.00
2022-09-04T19:19:01.286Z,71.30
2022-09-04T19:21:36.046Z,71.00
2022-09-04T19:24:13.010Z,68.53
2022-09-04T19:26:43.738Z,69.50
2022-09-04T19:29:16.917Z,68.67
2022-09-04T19:31:51.766Z,70.30
2022-09-04T19:34:28.323Z,69.10
2022-09-04T19:37:02.228Z,67.80
2022-09-04T19:45:59.170Z,70.27
2022-09-04T19:46:03.508Z,69.07
2022-09-04T19:46:25.747Z,68.07
2022-09-04T19:48:51.063Z,68.80
2022-09-04T19:53:34.345Z,70.87
2022-09-04T19:54:31.576Z,69.70
2022-09-04T19:57:32.071Z,68.27
2022-09-04T20:00:36.424Z,68.67
2022-09-04T20:02:58.749Z,67.97
2022-09-04T20:05:29.148Z,68.43
2022-09-04T20:08:00.601Z,69.20
2022-09-04T20:10:34.495Z,69.00
2022-09-04T20:13:21.529Z,67.67
2022-09-04T20:15:55.438Z,68.67
2022-09-04T20:18:28.361Z,67.70
2022-09-04T20:21:01.256Z,70.17
2022-09-04T20:23:35.673Z,69.17
2022-09-04T20:26:07.032Z,68.50
2022-09-04T20:28:48.388Z,68.10
2022-09-04T20:31:36.608Z,70.57
2022-09-04T20:34:17.350Z,68.07
2022-09-04T20:36:51.214Z,66.83
2022-09-04T20:39:24.072Z,67.30
2022-09-04T20:41:57.148Z,68.47
2022-09-04T20:44:29.688Z,67.40
2022-09-04T20:52:40.907Z,67.20
2022-09-04T20:52:50.226Z,67.00
2022-09-04T20:53:07.911Z,68.17
2022-09-04T20:56:03.947Z,66.70
2022-09-04T21:03:24.605Z,67.67
2022-09-04T21:03:27.019Z,67.37
2022-09-04T21:04:41.949Z,67.00
2022-09-04T21:07:19.573Z,68.27
2022-09-04T21:09:55.987Z,68.07
2022-09-04T21:12:30.028Z,67.17
2022-09-04T21:15:05.318Z,68.27
2022-09-04T21:17:46.155Z,70.20
2022-09-04T21:21:00.088Z,67.43
2022-09-04T21:23:54.466Z,67.87
2022-09-04T21:26:43.517Z,68.50
2022-09-04T21:29:33.467Z,68.80
2022-09-04T21:32:25.503Z,67.47
2022-09-04T21:35:04.507Z,66.60
2022-09-04T21:37:41.958Z,68.37
2022-09-04T21:40:50.071Z,66.27
2022-09-04T21:43:58.985Z,66.83
2022-09-04T21:47:08.608Z,71.80
2022-09-04T21:50:04.203Z,66.10
2022-09-04T21:52:50.327Z,68.00
2022-09-04T21:58:11.460Z,66.30
2022-09-04T22:02:35.904Z,71.20
2022-09-04T22:02:42.252Z,68.17
2022-09-04T22:04:48.787Z,66.93
2022-09-04T22:12:58.711Z,67.07
2022-09-04T22:13:30.627Z,67.17
2022-09-04T22:13:39.704Z,66.07
2022-09-04T22:16:17.300Z,67.60
2022-09-04T22:19:16.092Z,66.77
2022-09-04T22:22:03.577Z,66.40
2022-09-04T22:25:01.440Z,66.47
2022-09-04T22:28:02.561Z,66.53
2022-09-04T22:30:39.841Z,69.90
2022-09-04T22:33:48.314Z,67.30
2022-09-04T22:37:03.036Z,66.57
2022-09-04T22:39:45.710Z,67.40
2022-09-04T22:42:34.955Z,68.10
2022-09-04T22:45:40.161Z,67.87
2022-09-04T22:48:37.026Z,69.70
2022-09-04T22:51:12.915Z,66.70
2022-09-04T22:53:57.234Z,66.90
2022-09-04T22:56:40.453Z,67.50
2022-09-04T22:59:47.109Z,66.70
2022-09-04T23:03:07.798Z,66.57
2022-09-04T23:07:54.841Z,67.57
2022-09-04T23:13:59.032Z,67.27
2022-09-04T23:14:00.081Z,66.40
2022-09-04T23:15:48.129Z,67.30
2022-09-04T23:22:07.249Z,65.97
2022-09-04T23:26:39.094Z,66.10
2022-09-04T23:26:45.501Z,66.43
2022-09-04T23:27:33.151Z,66.20
2022-09-04T23:30:10.489Z,66.47
2022-09-04T23:33:06.515Z,66.60
2022-09-04T23:35:42.878Z,67.27
2022-09-04T23:38:45.580Z,66.33
2022-09-04T23:41:26.158Z,69.80
2022-09-04T23:44:44.955Z,67.20
2022-09-04T23:47:48.091Z,67.27
2022-09-04T23:50:26.837Z,67.77
2022-09-04T23:53:06.109Z,67.17
2022-09-04T23:55:49.054Z,67.57
2022-09-04T23:58:51.450Z,68.47
